sensor_id;sensor_type;location;lat;lon;timestamp;pressure;altitude;pressure_sealevel;temperature;humidity
829;BME280;396;52.558;13.188;2022-08-11T00:01:04;101944.00;;;18.74;73.88
829;BME280;396;52.558;13.188;2022-08-11T00:03:32;101947.97;;;18.68;74.20
829;BME280;396;52.558;13.188;2022-08-11T00:05:59;101947.50;;;18.66;74.08
829;BME280;396;52.558;13.188;2022-08-11T00:08:29;101944.59;;;18.62;74.22
829;BME280;396;52.558;13.188;2022-08-11T00:11:01;101950.88;;;18.63;74.82
829;BME280;396;52.558;13.188;2022-08-11T00:13:32;101946.38;;;18.58;75.06
829;BME280;396;52.558;13.188;2022-08-11T00:16:00;101945.56;;;18.58;75.05
829;BME280;396;52.558;13.188;2022-08-11T00:18:28;101944.75;;;18.57;74.61
829;BME280;396;52.558;13.188;2022-08-11T00:20:57;101956.06;;;18.56;75.00
829;BME280;396;52.558;13.188;2022-08-11T00:23:25;101953.31;;;18.56;75.06
829;BME280;396;52.558;13.188;2022-08-11T00:25:52;101950.56;;;18.56;75.16
829;BME280;396;52.558;13.188;2022-08-11T00:28:24;101956.88;;;18.56;74.82
829;BME280;396;52.558;13.188;2022-08-11T00:30:51;101947.03;;;18.55;75.26
829;BME280;396;52.558;13.188;2022-08-11T00:33:24;101943.31;;;18.51;75.40
829;BME280;396;52.558;13.188;2022-08-11T00:35:56;101939.59;;;18.47;75.44
829;BME280;396;52.558;13.188;2022-08-11T00:38:28;101936.69;;;18.44;75.47
829;BME280;396;52.558;13.188;2022-08-11T00:41:00;101941.53;;;18.38;76.06
829;BME280;396;52.558;13.188;2022-08-11T00:43:44;101947.00;;;18.29;76.49
829;BME280;396;52.558;13.188;2022-08-11T00:46:20;101942.63;;;18.28;76.35
829;BME280;396;52.558;13.188;2022-08-11T00:49:04;101937.28;;;18.23;76.61
829;BME280;396;52.558;13.188;2022-08-11T00:51:46;101949.53;;;18.17;76.52
829;BME280;396;52.558;13.188;2022-08-11T00:54:30;101946.44;;;18.10;76.55
829;BME280;396;52.558;13.188;2022-08-11T01:00:10;101944.63;;;17.97;77.30
829;BME280;396;52.558;13.188;2022-08-11T01:02:44;101947.22;;;17.93;77.34
829;BME280;396;52.558;13.188;2022-08-11T01:05:47;101943.31;;;17.85;78.16
829;BME280;396;52.558;13.188;2022-08-11T01:08:29;101940.25;;;17.87;78.16
829;BME280;396;52.558;13.188;2022-08-11T01:14:33;101942.16;;;17.78;78.51
829;BME280;396;52.558;13.188;2022-08-11T01:20:34;101941.56;;;17.58;78.38
829;BME280;396;52.558;13.188;2022-08-11T01:23:46;101951.56;;;17.63;78.83
829;BME280;396;52.558;13.188;2022-08-11T01:27:08;101951.41;;;17.59;79.15
829;BME280;396;52.558;13.188;2022-08-11T01:30:09;101944.88;;;17.47;79.47
829;BME280;396;52.558;13.188;2022-08-11T01:33:19;101945.63;;;17.38;79.41
829;BME280;396;52.558;13.188;2022-08-11T01:36:39;101945.16;;;17.36;78.85
829;BME280;396;52.558;13.188;2022-08-11T01:39:47;101940.81;;;17.35;79.34
829;BME280;396;52.558;13.188;2022-08-11T01:42:47;101942.53;;;17.31;79.53
829;BME280;396;52.558;13.188;2022-08-11T01:45:41;101940.25;;;17.25;79.99
829;BME280;396;52.558;13.188;2022-08-11T01:48:18;101939.44;;;17.24;80.04
829;BME280;396;52.558;13.188;2022-08-11T01:51:00;101943.09;;;17.20;80.81
829;BME280;396;52.558;13.188;2022-08-11T01:53:42;101936.25;;;17.08;80.91
829;BME280;396;52.558;13.188;2022-08-11T01:59:07;101926.88;;;17.01;81.56
829;BME280;396;52.558;13.188;2022-08-11T02:01:50;101929.75;;;16.96;81.43
829;BME280;396;52.558;13.188;2022-08-11T02:04:28;101927.38;;;17.03;81.49
829;BME280;396;52.558;13.188;2022-08-11T02:07:02;101928.50;;;17.02;81.49
829;BME280;396;52.558;13.188;2022-08-11T02:09:44;101934.09;;;16.97;81.60
829;BME280;396;52.558;13.188;2022-08-11T02:12:26;101925.38;;;16.95;81.47
829;BME280;396;52.558;13.188;2022-08-11T02:15:02;101935.66;;;16.89;81.69
829;BME280;396;52.558;13.188;2022-08-11T02:17:40;101933.72;;;16.89;81.62
829;BME280;396;52.558;13.188;2022-08-11T02:20:17;101937.25;;;16.90;81.94
829;BME280;396;52.558;13.188;2022-08-11T02:23:12;101926.44;;;16.85;81.69
829;BME280;396;52.558;13.188;2022-08-11T02:26:06;101932.53;;;16.82;82.16
829;BME280;396;52.558;13.188;2022-08-11T02:28:45;101924.84;;;16.70;82.35
829;BME280;396;52.558;13.188;2022-08-11T02:31:17;101920.59;;;16.64;82.84
829;BME280;396;52.558;13.188;2022-08-11T02:34:08;101926.06;;;16.64;82.88
829;BME280;396;52.558;13.188;2022-08-11T02:36:44;101921.22;;;16.61;82.89
829;BME280;396;52.558;13.188;2022-08-11T02:39:17;101916.75;;;16.65;82.84
829;BME280;396;52.558;13.188;2022-08-11T02:41:51;101920.72;;;16.59;82.56
829;BME280;396;52.558;13.188;2022-08-11T02:44:45;101914.16;;;16.46;82.96
829;BME280;396;52.558;13.188;2022-08-11T02:47:31;101910.34;;;16.47;83.20
829;BME280;396;52.558;13.188;2022-08-11T02:50:07;101906.75;;;16.47;82.55
829;BME280;396;52.558;13.188;2022-08-11T02:52:48;101906.59;;;16.43;83.22
829;BME280;396;52.558;13.188;2022-08-11T02:55:21;101920.28;;;16.43;82.58
829;BME280;396;52.558;13.188;2022-08-11T02:57:58;101903.25;;;16.32;83.34
829;BME280;396;52.558;13.188;2022-08-11T03:00:29;101909.03;;;16.31;83.24
829;BME280;396;52.558;13.188;2022-08-11T03:03:14;101912.19;;;16.24;82.89
829;BME280;396;52.558;13.188;2022-08-11T03:05:51;101917.88;;;16.14;83.19
829;BME280;396;52.558;13.188;2022-08-11T03:08:30;101916.59;;;16.11;83.78
829;BME280;396;52.558;13.188;2022-08-11T03:11:05;101916.25;;;16.13;84.08
829;BME280;396;52.558;13.188;2022-08-11T03:14:03;101919.72;;;16.05;83.84
829;BME280;396;52.558;13.188;2022-08-11T03:16:57;101922.16;;;15.93;84.72
829;BME280;396;52.558;13.188;2022-08-11T03:19:29;101918.28;;;15.94;85.10
829;BME280;396;52.558;13.188;2022-08-11T03:22:16;101921.13;;;15.88;84.91
829;BME280;396;52.558;13.188;2022-08-11T03:24:56;101919.41;;;15.93;84.80
829;BME280;396;52.558;13.188;2022-08-11T03:27:32;101921.94;;;15.75;85.61
829;BME280;396;52.558;13.188;2022-08-11T03:30:06;101923.75;;;15.80;85.19
829;BME280;396;52.558;13.188;2022-08-11T03:32:40;101920.31;;;15.74;85.20
829;BME280;396;52.558;13.188;2022-08-11T03:35:35;101915.56;;;15.80;85.27
829;BME280;396;52.558;13.188;2022-08-11T03:38:06;101915.28;;;15.81;84.87
829;BME280;396;52.558;13.188;2022-08-11T03:40:45;101926.38;;;15.71;85.41
829;BME280;396;52.558;13.188;2022-08-11T03:43:46;101929.28;;;15.61;85.95
829;BME280;396;52.558;13.188;2022-08-11T03:46:26;101908.91;;;15.72;85.61
829;BME280;396;52.558;13.188;2022-08-11T03:48:58;101916.88;;;15.69;85.80
829;BME280;396;52.558;13.188;2022-08-11T03:51:31;101918.00;;;15.68;86.32
829;BME280;396;52.558;13.188;2022-08-11T03:54:12;101918.66;;;15.59;86.45
829;BME280;396;52.558;13.188;2022-08-11T03:57:20;101917.25;;;15.62;86.45
829;BME280;396;52.558;13.188;2022-08-11T04:00:21;101926.06;;;15.59;86.71
829;BME280;396;52.558;13.188;2022-08-11T04:03:11;101927.16;;;15.58;87.00
829;BME280;396;52.558;13.188;2022-08-11T04:06:22;101914.81;;;15.60;86.51
829;BME280;396;52.558;13.188;2022-08-11T04:15:10;101919.69;;;15.50;87.20
829;BME280;396;52.558;13.188;2022-08-11T04:18:21;101909.78;;;15.54;87.29
829;BME280;396;52.558;13.188;2022-08-11T04:21:20;101921.19;;;15.56;87.34
829;BME280;396;52.558;13.188;2022-08-11T04:24:24;101920.16;;;15.52;88.33
829;BME280;396;52.558;13.188;2022-08-11T04:27:06;101923.31;;;15.59;88.23
829;BME280;396;52.558;13.188;2022-08-11T04:29:49;101916.38;;;15.67;87.88
829;BME280;396;52.558;13.188;2022-08-11T04:32:35;101919.63;;;15.69;88.17
829;BME280;396;52.558;13.188;2022-08-11T04:35:18;101922.53;;;15.58;88.40
829;BME280;396;52.558;13.188;2022-08-11T04:41:28;101926.69;;;15.83;87.91
829;BME280;396;52.558;13.188;2022-08-11T04:44:31;101929.22;;;15.80;87.86
829;BME280;396;52.558;13.188;2022-08-11T04:47:16;101922.94;;;15.79;87.59
829;BME280;396;52.558;13.188;2022-08-11T04:50:29;101922.34;;;15.82;87.82
829;BME280;396;52.558;13.188;2022-08-11T04:53:33;101931.25;;;15.88;88.79
829;BME280;396;52.558;13.188;2022-08-11T04:56:28;101922.03;;;15.98;88.97
829;BME280;396;52.558;13.188;2022-08-11T04:59:31;101923.25;;;16.05;88.81
829;BME280;396;52.558;13.188;2022-08-11T05:06:00;101922.91;;;16.34;87.91
829;BME280;396;52.558;13.188;2022-08-11T05:08:54;101922.19;;;16.43;89.31
829;BME280;396;52.558;13.188;2022-08-11T05:12:03;101927.91;;;16.55;91.12
829;BME280;396;52.558;13.188;2022-08-11T05:14:34;101926.84;;;16.42;91.87
829;BME280;396;52.558;13.188;2022-08-11T05:17:29;101925.78;;;16.29;94.31
829;BME280;396;52.558;13.188;2022-08-11T05:20:17;101934.38;;;16.23;96.19
829;BME280;396;52.558;13.188;2022-08-11T05:23:05;101930.84;;;16.22;97.50
829;BME280;396;52.558;13.188;2022-08-11T05:25:54;101933.69;;;16.17;97.94
829;BME280;396;52.558;13.188;2022-08-11T05:28:42;101937.72;;;16.20;98.33
829;BME280;396;52.558;13.188;2022-08-11T05:31:32;101935.88;;;16.29;99.42
829;BME280;396;52.558;13.188;2022-08-11T05:34:21;101933.75;;;16.39;99.23
829;BME280;396;52.558;13.188;2022-08-11T05:37:08;101939.50;;;16.52;98.59
829;BME280;396;52.558;13.188;2022-08-11T05:39:43;101943.72;;;16.58;98.55
829;BME280;396;52.558;13.188;2022-08-11T05:42:28;101938.00;;;16.68;98.62
829;BME280;396;52.558;13.188;2022-08-11T05:45:15;101942.50;;;16.78;98.42
829;BME280;396;52.558;13.188;2022-08-11T05:48:01;101944.66;;;16.89;98.50
829;BME280;396;52.558;13.188;2022-08-11T05:50:51;101952.63;;;17.00;97.57
829;BME280;396;52.558;13.188;2022-08-11T05:53:43;101952.06;;;17.11;96.47
829;BME280;396;52.558;13.188;2022-08-11T05:56:30;101946.16;;;17.18;94.72
829;BME280;396;52.558;13.188;2022-08-11T05:58:58;101948.63;;;17.28;94.44
829;BME280;396;52.558;13.188;2022-08-11T06:01:27;101957.38;;;17.39;93.80
829;BME280;396;52.558;13.188;2022-08-11T06:03:56;101947.63;;;17.47;93.41
829;BME280;396;52.558;13.188;2022-08-11T06:06:55;101956.53;;;17.61;92.21
829;BME280;396;52.558;13.188;2022-08-11T06:09:27;101955.66;;;17.74;91.37
829;BME280;396;52.558;13.188;2022-08-11T06:11:59;101955.88;;;17.86;90.89
829;BME280;396;52.558;13.188;2022-08-11T06:14:27;101957.84;;;17.95;89.74
829;BME280;396;52.558;13.188;2022-08-11T06:16:56;101951.28;;;18.04;88.27
829;BME280;396;52.558;13.188;2022-08-11T06:19:31;101956.00;;;18.21;87.27
829;BME280;396;52.558;13.188;2022-08-11T06:22:00;101954.25;;;18.34;86.63
829;BME280;396;52.558;13.188;2022-08-11T06:24:27;101958.00;;;18.47;85.81
829;BME280;396;52.558;13.188;2022-08-11T06:26:59;101966.56;;;18.62;85.37
829;BME280;396;52.558;13.188;2022-08-11T06:29:26;101969.16;;;18.76;85.40
829;BME280;396;52.558;13.188;2022-08-11T06:31:56;101965.47;;;18.89;85.23
829;BME280;396;52.558;13.188;2022-08-11T06:34:37;101967.72;;;19.05;85.22
829;BME280;396;52.558;13.188;2022-08-11T06:37:15;101969.50;;;19.18;84.49
829;BME280;396;52.558;13.188;2022-08-11T06:39:49;101979.31;;;19.28;83.97
829;BME280;396;52.558;13.188;2022-08-11T06:42:33;101970.88;;;19.41;83.47
829;BME280;396;52.558;13.188;2022-08-11T06:45:06;101971.84;;;19.54;83.56
829;BME280;396;52.558;13.188;2022-08-11T06:47:41;101962.94;;;19.66;82.23
829;BME280;396;52.558;13.188;2022-08-11T06:50:10;101967.72;;;19.78;82.31
829;BME280;396;52.558;13.188;2022-08-11T06:52:58;101962.69;;;19.88;81.72
829;BME280;396;52.558;13.188;2022-08-11T06:55:27;101958.09;;;20.01;80.69
829;BME280;396;52.558;13.188;2022-08-11T06:58:15;101959.94;;;20.18;78.27
829;BME280;396;52.558;13.188;2022-08-11T07:01:03;101963.25;;;20.32;78.34
829;BME280;396;52.558;13.188;2022-08-11T07:03:36;101963.50;;;20.48;76.86
829;BME280;396;52.558;13.188;2022-08-11T07:06:16;101954.50;;;20.60;75.49
829;BME280;396;52.558;13.188;2022-08-11T07:09:05;101956.66;;;20.75;74.52
829;BME280;396;52.558;13.188;2022-08-11T07:12:09;101965.47;;;20.89;73.58
829;BME280;396;52.558;13.188;2022-08-11T07:15:05;101964.16;;;21.08;70.35
829;BME280;396;52.558;13.188;2022-08-11T07:17:52;101958.66;;;21.20;70.12
829;BME280;396;52.558;13.188;2022-08-11T07:20:34;101954.38;;;21.31;69.89
829;BME280;396;52.558;13.188;2022-08-11T07:23:18;101963.25;;;21.49;69.23
829;BME280;396;52.558;13.188;2022-08-11T07:26:02;101951.09;;;21.62;68.11
829;BME280;396;52.558;13.188;2022-08-11T07:28:49;101951.94;;;21.75;66.60
829;BME280;396;52.558;13.188;2022-08-11T07:31:30;101958.94;;;21.85;66.23
829;BME280;396;52.558;13.188;2022-08-11T07:34:03;101962.03;;;21.96;67.01
829;BME280;396;52.558;13.188;2022-08-11T07:36:31;101956.88;;;22.06;64.88
829;BME280;396;52.558;13.188;2022-08-11T07:38:59;101955.28;;;22.17;63.64
829;BME280;396;52.558;13.188;2022-08-11T07:41:27;101957.91;;;22.26;62.25
829;BME280;396;52.558;13.188;2022-08-11T07:43:57;101956.72;;;22.39;61.96
829;BME280;396;52.558;13.188;2022-08-11T07:46:35;101959.47;;;22.52;61.02
829;BME280;396;52.558;13.188;2022-08-11T07:49:22;101957.50;;;22.64;59.46
829;BME280;396;52.558;13.188;2022-08-11T07:52:06;101949.97;;;22.77;58.82
829;BME280;396;52.558;13.188;2022-08-11T07:54:51;101961.94;;;22.81;59.95
829;BME280;396;52.558;13.188;2022-08-11T07:57:19;101960.28;;;22.92;61.15
829;BME280;396;52.558;13.188;2022-08-11T08:00:04;101964.88;;;23.01;60.25
829;BME280;396;52.558;13.188;2022-08-11T08:02:50;101967.03;;;23.07;58.96
829;BME280;396;52.558;13.188;2022-08-11T08:05:36;101966.16;;;23.19;58.42
829;BME280;396;52.558;13.188;2022-08-11T08:08:21;101964.03;;;23.28;57.78
829;BME280;396;52.558;13.188;2022-08-11T08:11:06;101967.28;;;23.30;56.70
829;BME280;396;52.558;13.188;2022-08-11T08:13:52;101965.56;;;23.41;55.51
829;BME280;396;52.558;13.188;2022-08-11T08:16:37;101959.19;;;23.53;55.43
829;BME280;396;52.558;13.188;2022-08-11T08:19:23;101963.38;;;23.63;54.63
829;BME280;396;52.558;13.188;2022-08-11T08:21:50;101962.06;;;23.73;53.40
829;BME280;396;52.558;13.188;2022-08-11T08:24:18;101956.00;;;23.83;52.39
829;BME280;396;52.558;13.188;2022-08-11T08:26:47;101956.00;;;23.83;52.63
829;BME280;396;52.558;13.188;2022-08-11T08:29:24;101955.81;;;23.91;53.00
829;BME280;396;52.558;13.188;2022-08-11T08:32:09;101949.44;;;24.07;51.86
829;BME280;396;52.558;13.188;2022-08-11T08:34:38;101944.88;;;24.14;51.16
829;BME280;396;52.558;13.188;2022-08-11T08:37:06;101945.56;;;24.27;51.28
829;BME280;396;52.558;13.188;2022-08-11T08:39:32;101950.56;;;24.37;51.09
829;BME280;396;52.558;13.188;2022-08-11T08:42:04;101947.22;;;24.48;50.99
829;BME280;396;52.558;13.188;2022-08-11T08:44:34;101946.56;;;24.54;51.23
829;BME280;396;52.558;13.188;2022-08-11T08:47:03;101942.03;;;24.65;51.69
829;BME280;396;52.558;13.188;2022-08-11T08:49:33;101945.06;;;24.76;50.62
829;BME280;396;52.558;13.188;2022-08-11T08:52:04;101947.09;;;24.79;50.98
829;BME280;396;52.558;13.188;2022-08-11T08:54:32;101949.59;;;24.84;50.71
829;BME280;396;52.558;13.188;2022-08-11T08:57:03;101944.25;;;24.95;50.60
829;BME280;396;52.558;13.188;2022-08-11T08:59:32;101941.69;;;25.06;51.40
829;BME280;396;52.558;13.188;2022-08-11T09:02:03;101945.09;;;25.19;49.89
829;BME280;396;52.558;13.188;2022-08-11T09:04:31;101943.66;;;25.25;51.94
829;BME280;396;52.558;13.188;2022-08-11T09:06:59;101941.44;;;25.34;51.49
829;BME280;396;52.558;13.188;2022-08-11T09:09:29;101940.31;;;25.38;50.78
829;BME280;396;52.558;13.188;2022-08-11T09:11:57;101940.75;;;25.40;47.63
829;BME280;396;52.558;13.188;2022-08-11T09:14:26;101939.75;;;25.52;48.89
829;BME280;396;52.558;13.188;2022-08-11T09:17:14;101941.00;;;25.55;48.67
829;BME280;396;52.558;13.188;2022-08-11T09:19:40;101942.78;;;25.66;48.02
829;BME280;396;52.558;13.188;2022-08-11T09:22:07;101941.38;;;25.76;47.98
829;BME280;396;52.558;13.188;2022-08-11T09:24:54;101938.72;;;25.83;46.19
829;BME280;396;52.558;13.188;2022-08-11T09:27:39;101939.44;;;26.03;44.02
829;BME280;396;52.558;13.188;2022-08-11T09:30:06;101937.59;;;26.14;44.50
829;BME280;396;52.558;13.188;2022-08-11T09:32:34;101946.41;;;26.20;45.97
829;BME280;396;52.558;13.188;2022-08-11T09:35:02;101940.50;;;26.22;46.68
829;BME280;396;52.558;13.188;2022-08-11T09:37:30;101941.69;;;26.24;46.47
829;BME280;396;52.558;13.188;2022-08-11T09:40:17;101940.22;;;26.30;45.86
829;BME280;396;52.558;13.188;2022-08-11T09:42:56;101931.50;;;26.32;45.44
829;BME280;396;52.558;13.188;2022-08-11T09:45:43;101929.19;;;26.37;45.71
829;BME280;396;52.558;13.188;2022-08-11T09:48:16;101924.56;;;26.45;47.59
829;BME280;396;52.558;13.188;2022-08-11T09:50:44;101923.97;;;26.62;43.60
829;BME280;396;52.558;13.188;2022-08-11T09:53:11;101911.03;;;26.77;44.34
829;BME280;396;52.558;13.188;2022-08-11T09:55:39;101915.41;;;26.78;43.94
829;BME280;396;52.558;13.188;2022-08-11T09:58:05;101912.69;;;26.82;44.26
829;BME280;396;52.558;13.188;2022-08-11T10:00:43;101917.53;;;26.88;43.69
829;BME280;396;52.558;13.188;2022-08-11T10:03:12;101919.56;;;26.95;44.23
829;BME280;396;52.558;13.188;2022-08-11T10:05:43;101903.78;;;27.03;42.74
829;BME280;396;52.558;13.188;2022-08-11T10:08:29;101909.53;;;27.21;43.92
829;BME280;396;52.558;13.188;2022-08-11T10:10:59;101906.09;;;27.34;43.53
829;BME280;396;52.558;13.188;2022-08-11T10:13:29;101904.22;;;27.49;42.54
829;BME280;396;52.558;13.188;2022-08-11T10:16:01;101901.88;;;27.55;39.28
829;BME280;396;52.558;13.188;2022-08-11T10:18:33;101905.50;;;27.62;39.06
829;BME280;396;52.558;13.188;2022-08-11T10:21:23;101905.88;;;27.57;40.51
829;BME280;396;52.558;13.188;2022-08-11T10:23:53;101899.50;;;27.57;40.81
829;BME280;396;52.558;13.188;2022-08-11T10:26:41;101901.97;;;27.65;40.97
829;BME280;396;52.558;13.188;2022-08-11T10:29:19;101889.75;;;27.77;40.52
829;BME280;396;52.558;13.188;2022-08-11T10:32:03;101893.34;;;27.78;41.35
829;BME280;396;52.558;13.188;2022-08-11T10:34:49;101894.56;;;27.80;39.78
829;BME280;396;52.558;13.188;2022-08-11T10:37:16;101894.56;;;27.80;39.92
829;BME280;396;52.558;13.188;2022-08-11T10:39:45;101884.66;;;27.90;39.13
829;BME280;396;52.558;13.188;2022-08-11T10:42:14;101886.28;;;27.95;39.84
829;BME280;396;52.558;13.188;2022-08-11T10:44:59;101878.28;;;27.93;38.36
829;BME280;396;52.558;13.188;2022-08-11T10:47:27;101871.97;;;28.00;38.10
829;BME280;396;52.558;13.188;2022-08-11T10:49:59;101875.16;;;28.02;40.37
829;BME280;396;52.558;13.188;2022-08-11T10:52:46;101870.47;;;28.13;39.47
829;BME280;396;52.558;13.188;2022-08-11T10:55:31;101879.31;;;28.29;38.25
829;BME280;396;52.558;13.188;2022-08-11T10:58:17;101864.28;;;28.48;38.18
829;BME280;396;52.558;13.188;2022-08-11T11:01:02;101861.53;;;28.70;39.99
829;BME280;396;52.558;13.188;2022-08-11T11:03:30;101862.38;;;28.91;39.27
829;BME280;396;52.558;13.188;2022-08-11T11:06:04;101863.22;;;29.03;37.10
829;BME280;396;52.558;13.188;2022-08-11T11:08:32;101863.63;;;29.26;38.20
829;BME280;396;52.558;13.188;2022-08-11T11:11:21;101854.06;;;29.56;38.57
829;BME280;396;52.558;13.188;2022-08-11T11:14:13;101863.63;;;29.69;37.39
829;BME280;396;52.558;13.188;2022-08-11T11:16:59;101858.81;;;29.73;37.03
829;BME280;396;52.558;13.188;2022-08-11T11:19:45;101859.63;;;29.81;34.53
829;BME280;396;52.558;13.188;2022-08-11T11:22:13;101854.34;;;30.08;35.54
829;BME280;396;52.558;13.188;2022-08-11T11:25:04;101851.75;;;30.56;35.19
829;BME280;396;52.558;13.188;2022-08-11T11:27:39;101848.16;;;31.15;33.77
829;BME280;396;52.558;13.188;2022-08-11T11:30:15;101849.09;;;31.87;34.62
829;BME280;396;52.558;13.188;2022-08-11T11:32:47;101844.25;;;32.56;31.45
829;BME280;396;52.558;13.188;2022-08-11T11:35:24;101849.22;;;33.03;31.91
829;BME280;396;52.558;13.188;2022-08-11T11:37:52;101849.31;;;33.19;30.77
829;BME280;396;52.558;13.188;2022-08-11T11:40:21;101853.38;;;33.65;30.68
829;BME280;396;52.558;13.188;2022-08-11T11:42:50;101851.34;;;34.25;31.86
829;BME280;396;52.558;13.188;2022-08-11T11:45:19;101860.91;;;34.84;30.40
829;BME280;396;52.558;13.188;2022-08-11T11:47:46;101859.72;;;35.01;28.67
829;BME280;396;52.558;13.188;2022-08-11T11:50:21;101855.31;;;35.17;28.62
829;BME280;396;52.558;13.188;2022-08-11T11:52:48;101860.50;;;35.51;28.53
829;BME280;396;52.558;13.188;2022-08-11T11:55:16;101851.06;;;35.86;28.46
829;BME280;396;52.558;13.188;2022-08-11T11:57:43;101851.41;;;35.88;28.88
829;BME280;396;52.558;13.188;2022-08-11T12:00:29;101836.00;;;35.64;27.41
829;BME280;396;52.558;13.188;2022-08-11T12:03:13;101841.66;;;35.48;27.21
829;BME280;396;52.558;13.188;2022-08-11T12:05:41;101831.84;;;35.81;26.71
829;BME280;396;52.558;13.188;2022-08-11T12:08:10;101832.22;;;35.83;27.57
829;BME280;396;52.558;13.188;2022-08-11T12:10:43;101829.59;;;36.18;28.85
829;BME280;396;52.558;13.188;2022-08-11T12:13:10;101835.97;;;36.48;28.08
829;BME280;396;52.558;13.188;2022-08-11T12:15:57;101838.69;;;36.64;26.45
829;BME280;396;52.558;13.188;2022-08-11T12:18:30;101813.38;;;36.73;26.61
829;BME280;396;52.558;13.188;2022-08-11T12:20:58;101829.22;;;36.58;26.08
829;BME280;396;52.558;13.188;2022-08-11T12:23:24;101815.66;;;36.53;26.08
829;BME280;396;52.558;13.188;2022-08-11T12:26:09;101822.75;;;36.70;26.46
829;BME280;396;52.558;13.188;2022-08-11T12:28:57;101809.19;;;36.78;24.74
829;BME280;396;52.558;13.188;2022-08-11T12:31:27;101805.25;;;36.75;25.67
829;BME280;396;52.558;13.188;2022-08-11T12:33:59;101798.81;;;36.62;25.38
829;BME280;396;52.558;13.188;2022-08-11T12:36:26;101798.75;;;36.87;26.06
829;BME280;396;52.558;13.188;2022-08-11T12:38:53;101805.78;;;36.96;26.47
829;BME280;396;52.558;13.188;2022-08-11T12:41:21;101799.13;;;37.37;26.43
829;BME280;396;52.558;13.188;2022-08-11T12:44:07;101810.97;;;37.45;25.64
829;BME280;396;52.558;13.188;2022-08-11T12:46:55;101803.03;;;37.18;25.76
829;BME280;396;52.558;13.188;2022-08-11T12:49:27;101801.66;;;37.57;25.89
829;BME280;396;52.558;13.188;2022-08-11T12:52:17;101789.66;;;37.97;26.36
829;BME280;396;52.558;13.188;2022-08-11T12:54:54;101790.91;;;38.27;24.49
829;BME280;396;52.558;13.188;2022-08-11T12:57:27;101796.38;;;38.43;24.16
829;BME280;396;52.558;13.188;2022-08-11T13:00:13;101787.44;;;37.92;23.70
829;BME280;396;52.558;13.188;2022-08-11T13:02:59;101783.88;;;37.78;24.17
829;BME280;396;52.558;13.188;2022-08-11T13:05:45;101774.25;;;37.76;26.21
829;BME280;396;52.558;13.188;2022-08-11T13:08:14;101775.34;;;37.91;24.43
829;BME280;396;52.558;13.188;2022-08-11T13:10:42;101768.84;;;38.13;25.19
829;BME280;396;52.558;13.188;2022-08-11T13:13:26;101768.69;;;38.16;25.01
829;BME280;396;52.558;13.188;2022-08-11T13:15:54;101760.63;;;38.05;24.15
829;BME280;396;52.558;13.188;2022-08-11T13:18:22;101759.53;;;37.81;23.66
829;BME280;396;52.558;13.188;2022-08-11T13:20:51;101757.09;;;37.26;23.52
829;BME280;396;52.558;13.188;2022-08-11T13:23:18;101762.53;;;37.21;25.28
829;BME280;396;52.558;13.188;2022-08-11T13:25:46;101753.56;;;37.57;25.47
829;BME280;396;52.558;13.188;2022-08-11T13:28:15;101761.72;;;37.99;24.49
829;BME280;396;52.558;13.188;2022-08-11T13:30:46;101762.56;;;38.18;25.54
829;BME280;396;52.558;13.188;2022-08-11T13:33:34;101764.72;;;38.35;23.97
829;BME280;396;52.558;13.188;2022-08-11T13:36:02;101756.78;;;38.61;23.72
829;BME280;396;52.558;13.188;2022-08-11T13:38:29;101757.72;;;38.68;24.91
829;BME280;396;52.558;13.188;2022-08-11T13:40:56;101745.28;;;38.65;24.39
829;BME280;396;52.558;13.188;2022-08-11T13:43:23;101750.97;;;38.74;23.30
829;BME280;396;52.558;13.188;2022-08-11T13:45:51;101735.81;;;38.09;23.61
829;BME280;396;52.558;13.188;2022-08-11T13:48:39;101732.47;;;38.42;23.61
829;BME280;396;52.558;13.188;2022-08-11T13:51:07;101735.69;;;38.63;24.21
829;BME280;396;52.558;13.188;2022-08-11T13:53:52;101732.72;;;38.75;24.58
829;BME280;396;52.558;13.188;2022-08-11T13:56:20;101733.88;;;38.38;22.62
829;BME280;396;52.558;13.188;2022-08-11T13:58:47;101733.81;;;37.66;23.50
829;BME280;396;52.558;13.188;2022-08-11T14:01:14;101724.16;;;37.10;24.40
829;BME280;396;52.558;13.188;2022-08-11T14:03:44;101722.22;;;36.73;24.15
829;BME280;396;52.558;13.188;2022-08-11T14:06:12;101711.88;;;36.06;24.85
829;BME280;396;52.558;13.188;2022-08-11T14:08:39;101733.94;;;35.82;27.06
829;BME280;396;52.558;13.188;2022-08-11T14:11:09;101730.38;;;35.52;26.84
829;BME280;396;52.558;13.188;2022-08-11T14:13:54;101724.38;;;35.21;28.06
829;BME280;396;52.558;13.188;2022-08-11T14:16:26;101708.59;;;34.62;26.96
829;BME280;396;52.558;13.188;2022-08-11T14:18:59;101711.91;;;34.08;27.16
829;BME280;396;52.558;13.188;2022-08-11T14:21:27;101709.16;;;33.48;28.08
829;BME280;396;52.558;13.188;2022-08-11T14:24:12;101705.88;;;32.86;27.94
829;BME280;396;52.558;13.188;2022-08-11T14:26:41;101695.06;;;32.38;29.20
829;BME280;396;52.558;13.188;2022-08-11T14:29:12;101695.16;;;32.27;29.13
829;BME280;396;52.558;13.188;2022-08-11T14:31:43;101687.75;;;31.86;29.88
829;BME280;396;52.558;13.188;2022-08-11T14:34:12;101685.91;;;31.73;29.61
829;BME280;396;52.558;13.188;2022-08-11T14:36:43;101675.53;;;31.70;30.28
829;BME280;396;52.558;13.188;2022-08-11T14:39:10;101679.97;;;31.71;31.79
829;BME280;396;52.558;13.188;2022-08-11T14:41:40;101672.53;;;31.57;31.32
829;BME280;396;52.558;13.188;2022-08-11T14:44:24;101665.97;;;31.36;32.31
829;BME280;396;52.558;13.188;2022-08-11T14:47:09;101673.03;;;31.10;30.99
829;BME280;396;52.558;13.188;2022-08-11T14:49:41;101668.69;;;31.06;32.08